createdAt,value
2019-03-30T00:02:23.616Z,88.50
2019-03-30T00:04:55.018Z,89.42
2019-03-30T00:07:26.338Z,88.62
2019-03-30T00:09:57.578Z,88.16
2019-03-30T00:12:28.881Z,87.50
2019-03-30T00:15:00.245Z,87.36
2019-03-30T00:17:31.456Z,88.13
2019-03-30T00:20:02.748Z,87.78
2019-03-30T00:22:34.055Z,86.96
2019-03-30T00:25:05.831Z,86.91
2019-03-30T00:27:37.054Z,86.42
2019-03-30T00:30:08.448Z,88.03
2019-03-30T00:32:39.739Z,88.54
2019-03-30T00:35:11.057Z,89.58
2019-03-30T00:37:42.286Z,89.52
2019-03-30T00:40:13.588Z,89.57
2019-03-30T00:42:44.900Z,89.84
2019-03-30T00:45:16.183Z,89.42
2019-03-30T00:47:47.429Z,89.10
2019-03-30T00:50:18.639Z,89.07
2019-03-30T00:52:49.966Z,89.26
2019-03-30T00:55:21.313Z,88.95
2019-03-30T00:57:52.453Z,88.55
2019-03-30T01:00:23.806Z,89.07
2019-03-30T01:02:55.163Z,89.96
2019-03-30T01:05:26.459Z,89.60
2019-03-30T01:07:57.652Z,89.54
2019-03-30T01:10:28.988Z,89.55
2019-03-30T01:13:00.054Z,89.53
2019-03-30T01:15:31.285Z,89.81
2019-03-30T01:18:02.579Z,89.68
2019-03-30T01:20:33.910Z,89.30
2019-03-30T01:23:05.187Z,88.96
2019-03-30T01:25:36.608Z,89.68
2019-03-30T01:28:07.910Z,90.14
2019-03-30T01:30:39.267Z,89.92
2019-03-30T01:33:10.591Z,90.00
2019-03-30T01:35:41.845Z,90.62
2019-03-30T01:38:13.068Z,90.35
2019-03-30T01:40:44.289Z,90.00
2019-03-30T01:43:15.482Z,91.00
2019-03-30T01:45:46.761Z,90.23
2019-03-30T01:48:18.014Z,89.96
2019-03-30T01:50:49.298Z,91.03
2019-03-30T01:53:20.578Z,90.16
2019-03-30T01:55:51.891Z,90.75
2019-03-30T01:58:23.191Z,90.93
2019-03-30T02:00:54.353Z,91.24
2019-03-30T02:03:25.634Z,90.93
2019-03-30T02:05:56.943Z,90.59
2019-03-30T02:08:28.237Z,89.94
2019-03-30T02:10:59.655Z,89.71
2019-03-30T02:13:30.877Z,90.42
2019-03-30T02:16:02.218Z,90.50
2019-03-30T02:18:33.572Z,90.31
2019-03-30T02:21:04.871Z,90.55
2019-03-30T02:23:36.361Z,90.62
2019-03-30T02:26:07.728Z,90.35
2019-03-30T02:28:38.987Z,89.70
2019-03-30T02:31:10.380Z,89.13
2019-03-30T02:33:41.842Z,89.38
2019-03-30T02:36:13.231Z,89.16
2019-03-30T02:38:44.600Z,88.72
2019-03-30T02:41:15.932Z,88.44
2019-03-30T02:43:47.215Z,88.73
2019-03-30T02:46:18.411Z,88.43
2019-03-30T02:48:49.799Z,88.28
2019-03-30T02:51:21.111Z,88.42
2019-03-30T02:56:43.540Z,89.06
2019-03-30T02:59:14.752Z,89.02
2019-03-30T03:01:46.053Z,88.80
2019-03-30T03:04:17.369Z,88.64
2019-03-30T03:06:48.692Z,88.67
2019-03-30T06:31:16.881Z,92.37
2019-03-30T06:33:49.003Z,92.98
2019-03-30T06:36:20.415Z,93.20
2019-03-30T06:38:51.940Z,93.42
2019-03-30T06:41:23.323Z,93.43
2019-03-30T06:43:54.646Z,93.83
2019-03-30T06:46:30.025Z,94.00
2019-03-30T06:49:01.390Z,94.53
2019-03-30T06:51:32.620Z,94.86
2019-03-30T06:54:04.620Z,95.03
2019-03-30T06:56:36.126Z,95.16
2019-03-30T06:59:07.415Z,95.14
2019-03-30T07:01:38.746Z,95.16
2019-03-30T07:04:11.345Z,95.19
2019-03-30T07:06:44.724Z,95.17
2019-03-30T07:09:18.730Z,95.06
2019-03-30T07:11:53.619Z,94.84
2019-03-30T07:14:27.424Z,94.77
2019-03-30T07:17:01.925Z,94.67
2019-03-30T07:19:37.970Z,94.36
2019-03-30T07:22:09.276Z,94.12
2019-03-30T07:24:40.646Z,93.74
2019-03-30T07:27:11.932Z,93.32
2019-03-30T07:29:43.290Z,93.07
2019-03-30T07:32:14.602Z,92.77
2019-03-30T07:34:45.970Z,92.46
2019-03-30T07:37:17.272Z,92.35
2019-03-30T07:39:48.586Z,92.27
2019-03-30T07:42:19.888Z,91.91
2019-03-30T07:44:51.392Z,91.69
2019-03-30T07:47:22.744Z,91.37
2019-03-30T07:49:54.126Z,90.89
2019-03-30T07:52:25.402Z,90.23
2019-03-30T07:54:56.606Z,90.22
2019-03-30T07:57:27.852Z,89.12
2019-03-30T07:59:59.193Z,89.04
2019-03-30T08:02:30.421Z,88.83
2019-03-30T08:05:01.691Z,88.44
2019-03-30T08:07:32.972Z,87.79
2019-03-30T08:10:04.601Z,87.47
2019-03-30T08:12:36.587Z,86.71
2019-03-30T08:15:09.423Z,85.61
2019-03-30T08:17:43.108Z,85.21
2019-03-30T08:20:15.513Z,85.33
2019-03-30T08:22:46.812Z,84.67
2019-03-30T08:25:18.232Z,83.94
2019-03-30T08:27:49.569Z,82.18
2019-03-30T08:30:20.863Z,81.54
2019-03-30T08:32:52.245Z,81.40
2019-03-30T08:35:23.466Z,81.44
2019-03-30T08:37:54.747Z,79.89
2019-03-30T08:40:26.087Z,78.03
2019-03-30T08:42:57.428Z,78.96
2019-03-30T08:45:28.748Z,78.91
2019-03-30T08:48:00.010Z,77.94
2019-03-30T08:50:31.404Z,77.25
2019-03-30T08:53:02.727Z,77.68
2019-03-30T08:55:34.084Z,78.42
2019-03-30T08:58:05.390Z,77.84
2019-03-30T09:00:42.303Z,76.50
2019-03-30T09:03:13.788Z,75.49
2019-03-30T09:05:45.082Z,76.08
2019-03-30T09:08:16.446Z,75.54
2019-03-30T09:10:47.767Z,75.03
2019-03-30T09:13:19.083Z,74.73
2019-03-30T09:15:50.443Z,73.66
2019-03-30T09:18:21.793Z,73.41
2019-03-30T09:20:53.110Z,73.01
2019-03-30T09:23:24.610Z,72.76
2019-03-30T09:25:55.937Z,72.96
2019-03-30T09:28:27.272Z,72.72
2019-03-30T09:30:58.625Z,72.36
2019-03-30T09:33:29.911Z,70.55
2019-03-30T09:36:01.255Z,70.29
2019-03-30T09:38:32.573Z,68.34
2019-03-30T09:41:04.224Z,68.88
2019-03-30T09:43:37.504Z,69.04
2019-03-30T09:46:08.559Z,68.76
2019-03-30T09:48:39.857Z,68.49
2019-03-30T09:51:11.187Z,67.31
2019-03-30T09:53:42.549Z,67.72
2019-03-30T09:56:13.931Z,67.18
2019-03-30T09:58:45.193Z,67.07
2019-03-30T10:01:16.610Z,66.71
2019-03-30T10:03:47.932Z,66.11
2019-03-30T10:06:19.242Z,65.34
2019-03-30T10:08:50.483Z,65.79
2019-03-30T10:11:21.693Z,65.25
2019-03-30T10:13:52.933Z,65.50
2019-03-30T10:16:24.303Z,64.71
2019-03-30T10:18:55.538Z,64.45
2019-03-30T10:21:26.848Z,64.41
2019-03-30T10:23:58.107Z,64.16
2019-03-30T10:26:29.409Z,62.65
2019-03-30T10:29:00.669Z,63.99
2019-03-30T10:31:32.032Z,63.84
2019-03-30T10:34:03.340Z,63.55
2019-03-30T10:36:34.558Z,62.68
2019-03-30T10:39:07.747Z,63.22
2019-03-30T10:41:39.058Z,63.75
2019-03-30T10:44:10.397Z,62.16
2019-03-30T10:46:41.793Z,61.52
2019-03-30T10:49:13.098Z,60.63
2019-03-30T10:51:44.295Z,60.36
2019-03-30T10:54:15.604Z,60.49
2019-03-30T10:56:46.847Z,60.78
2019-03-30T10:59:18.063Z,61.67
2019-03-30T11:01:49.393Z,61.52
2019-03-30T11:04:20.586Z,60.31
2019-03-30T11:06:51.872Z,60.80
2019-03-30T11:09:23.196Z,60.72
2019-03-30T11:11:54.515Z,61.06
2019-03-30T11:14:25.917Z,59.65
2019-03-30T11:16:57.163Z,60.61
2019-03-30T11:19:28.385Z,60.68
2019-03-30T11:22:02.905Z,60.69
2019-03-30T11:24:32.660Z,59.49
2019-03-30T11:27:04.036Z,59.76
2019-03-30T11:29:35.245Z,58.89
2019-03-30T11:32:06.603Z,58.41
2019-03-30T11:34:37.750Z,57.93
2019-03-30T11:37:09.077Z,58.43
2019-03-30T11:39:40.335Z,56.70
2019-03-30T11:42:11.635Z,57.22
2019-03-30T11:44:42.898Z,57.17
2019-03-30T11:47:14.244Z,57.38
2019-03-30T11:49:45.481Z,57.16
2019-03-30T11:52:16.728Z,56.28
2019-03-30T11:54:48.046Z,56.09
2019-03-30T11:57:19.347Z,55.71
2019-03-30T11:59:50.674Z,56.08
2019-03-30T12:02:28.171Z,55.52
2019-03-30T12:04:55.167Z,56.53
2019-03-30T12:07:26.509Z,56.23
2019-03-30T12:09:57.829Z,55.09
2019-03-30T12:12:28.960Z,54.07
2019-03-30T12:15:00.488Z,52.80
2019-03-30T12:17:31.784Z,52.92
2019-03-30T12:20:03.079Z,53.65
2019-03-30T12:22:34.395Z,53.51
2019-03-30T12:25:06.425Z,52.37
2019-03-30T12:27:37.659Z,52.80
2019-03-30T12:30:09.306Z,51.15
2019-03-30T12:32:40.700Z,50.95
2019-03-30T12:35:12.329Z,50.20
2019-03-30T12:37:43.506Z,50.25
2019-03-30T12:40:16.291Z,50.88
2019-03-30T12:42:47.949Z,50.02
2019-03-30T12:45:19.329Z,49.26
2019-03-30T12:47:50.619Z,49.26
2019-03-30T12:50:21.929Z,50.31
2019-03-30T12:52:53.278Z,49.24
2019-03-30T12:55:24.596Z,47.30
2019-03-30T12:57:55.918Z,48.59
2019-03-30T13:00:27.216Z,47.48
2019-03-30T13:02:58.547Z,43.02
2019-03-30T13:05:29.823Z,40.43
2019-03-30T13:08:01.110Z,36.61
2019-03-30T13:10:32.440Z,36.61
2019-03-30T13:13:03.656Z,34.29
2019-03-30T13:15:34.886Z,35.32
2019-03-30T13:18:06.217Z,35.56
2019-03-30T13:20:37.517Z,37.57
2019-03-30T13:23:08.768Z,36.54
2019-03-30T13:25:40.087Z,34.55
2019-03-30T13:28:11.413Z,32.29
2019-03-30T13:30:42.734Z,32.76
2019-03-30T13:33:14.073Z,34.10
2019-03-30T13:35:45.263Z,37.11
2019-03-30T13:38:16.399Z,40.55
2019-03-30T13:40:47.775Z,38.40
2019-03-30T13:43:19.090Z,39.95
2019-03-30T13:45:50.356Z,42.21
2019-03-30T13:48:21.688Z,43.34
2019-03-30T13:50:52.978Z,45.24
2019-03-30T13:53:24.211Z,45.63
2019-03-30T13:55:55.493Z,45.97
2019-03-30T13:58:26.747Z,46.43
2019-03-30T14:00:58.050Z,43.38
2019-03-30T14:03:29.253Z,39.32
2019-03-30T14:06:00.560Z,40.12
2019-03-30T14:08:31.759Z,44.94
2019-03-30T14:11:03.132Z,44.94
2019-03-30T14:13:34.434Z,42.57
2019-03-30T14:16:05.739Z,39.91
2019-03-30T14:18:37.192Z,38.20
2019-03-30T14:21:08.497Z,36.38
2019-03-30T14:23:43.212Z,34.41
2019-03-30T14:26:12.923Z,32.84
2019-03-30T14:28:44.041Z,33.21
2019-03-30T14:31:15.300Z,32.51
2019-03-30T14:33:46.581Z,32.49
2019-03-30T14:36:17.852Z,31.17
2019-03-30T14:38:49.152Z,33.78
2019-03-30T14:41:20.921Z,35.29
2019-03-30T14:43:52.301Z,35.47
2019-03-30T14:46:23.483Z,34.29
2019-03-30T14:48:54.820Z,34.60
2019-03-30T14:51:26.031Z,32.30
2019-03-30T14:53:57.349Z,31.66
2019-03-30T14:56:28.695Z,32.27
2019-03-30T14:59:10.090Z,32.52
2019-03-30T15:01:33.056Z,32.56
2019-03-30T15:04:04.620Z,32.40
2019-03-30T15:06:35.927Z,32.08
2019-03-30T15:09:08.776Z,31.69
2019-03-30T15:11:40.061Z,33.42
2019-03-30T15:14:11.348Z,33.04
2019-03-30T15:16:42.800Z,31.41
2019-03-30T15:19:14.163Z,34.16
2019-03-30T15:21:45.445Z,33.93
2019-03-30T15:24:17.000Z,33.74
2019-03-30T15:26:59.374Z,35.01
2019-03-30T15:29:21.578Z,34.55
2019-03-30T15:31:52.898Z,37.85
2019-03-30T15:34:24.417Z,41.08
2019-03-30T15:36:55.887Z,39.09
2019-03-30T15:39:27.689Z,40.21
2019-03-30T15:41:59.104Z,39.79
2019-03-30T15:44:30.451Z,38.21
2019-03-30T15:47:01.817Z,39.19
2019-03-30T15:49:33.120Z,39.81
2019-03-30T15:52:13.723Z,40.07
2019-03-30T15:54:37.655Z,39.42
2019-03-30T15:57:14.321Z,38.74
2019-03-30T15:59:42.226Z,37.95
2019-03-30T16:02:13.583Z,36.05
2019-03-30T16:04:45.026Z,36.61
2019-03-30T16:07:16.597Z,35.52
2019-03-30T16:09:48.029Z,35.32
2019-03-30T16:12:19.605Z,35.85
2019-03-30T16:14:51.040Z,36.56
2019-03-30T16:17:22.438Z,37.54
2019-03-30T16:19:53.913Z,38.79
2019-03-30T16:22:25.340Z,39.49
2019-03-30T16:24:56.862Z,40.31
2019-03-30T16:27:29.490Z,42.01
2019-03-30T16:30:01.142Z,42.02
2019-03-30T16:32:32.633Z,43.27
2019-03-30T16:35:04.098Z,43.65
2019-03-30T16:37:35.459Z,44.40
2019-03-30T16:40:07.498Z,44.57
2019-03-30T16:42:38.847Z,45.93
2019-03-30T16:45:10.932Z,46.31
2019-03-30T16:47:42.380Z,46.40
2019-03-30T16:50:15.374Z,46.47
2019-03-30T16:52:46.735Z,47.04
2019-03-30T16:55:18.128Z,47.48
2019-03-30T16:57:49.405Z,48.07
2019-03-30T17:00:20.865Z,48.45
2019-03-30T17:02:52.243Z,49.26
2019-03-30T17:05:23.621Z,49.23
2019-03-30T17:07:55.049Z,49.30
2019-03-30T17:10:26.412Z,48.91
2019-03-30T17:12:57.829Z,48.96
2019-03-30T17:15:29.270Z,49.04
2019-03-30T17:18:00.612Z,49.34
2019-03-30T17:20:31.972Z,51.77
2019-03-30T17:23:03.274Z,54.02
2019-03-30T17:25:34.693Z,56.56
2019-03-30T17:28:07.076Z,59.75
2019-03-30T17:30:38.956Z,61.86
2019-03-30T17:33:10.312Z,63.70
2019-03-30T17:35:41.774Z,64.81
2019-03-30T17:38:13.301Z,65.19
2019-03-30T17:40:44.653Z,65.33
2019-03-30T17:43:16.103Z,65.74
2019-03-30T17:45:47.578Z,65.60
2019-03-30T17:48:19.151Z,65.91
2019-03-30T17:50:50.637Z,66.01
2019-03-30T17:53:22.250Z,66.64
2019-03-30T17:55:53.636Z,66.69
2019-03-30T17:58:25.168Z,66.61
2019-03-30T18:00:56.646Z,67.00
2019-03-30T18:03:28.073Z,67.08
2019-03-30T18:05:59.438Z,67.18
2019-03-30T18:08:30.926Z,67.88
2019-03-30T18:11:04.112Z,66.97
2019-03-30T18:13:36.976Z,66.37
2019-03-30T18:16:08.463Z,65.94
2019-03-30T18:18:39.887Z,65.85
2019-03-30T18:21:12.198Z,65.28
2019-03-30T18:23:43.545Z,64.49
2019-03-30T18:26:15.251Z,63.23
2019-03-30T18:28:46.567Z,63.38
2019-03-30T18:31:18.354Z,63.25
2019-03-30T18:33:50.354Z,62.33
2019-03-30T18:36:22.115Z,62.47
2019-03-30T18:39:08.784Z,61.95
2019-03-30T18:41:29.125Z,61.95
2019-03-30T18:44:02.173Z,62.51
2019-03-30T18:46:33.742Z,63.00
2019-03-30T18:49:05.238Z,63.52
2019-03-30T18:51:37.466Z,63.19
2019-03-30T18:54:08.983Z,62.30
2019-03-30T18:56:40.559Z,62.06
2019-03-30T18:59:12.121Z,62.58
2019-03-30T19:01:43.558Z,62.95
2019-03-30T19:04:15.020Z,63.70
2019-03-30T19:06:46.488Z,64.47
2019-03-30T19:09:17.951Z,65.06
2019-03-30T19:11:49.832Z,65.69
2019-03-30T19:14:21.413Z,66.27
2019-03-30T19:16:52.887Z,66.70
2019-03-30T19:19:24.338Z,67.21
2019-03-30T19:21:55.757Z,67.57
2019-03-30T19:24:27.215Z,68.15
2019-03-30T19:26:58.732Z,68.58
2019-03-30T19:29:30.175Z,68.98
2019-03-30T19:32:01.580Z,69.47
2019-03-30T19:34:32.976Z,69.75
2019-03-30T19:37:04.356Z,70.30
2019-03-30T19:39:35.778Z,70.61
2019-03-30T19:42:07.664Z,70.44
2019-03-30T19:44:39.051Z,70.87
2019-03-30T19:47:10.473Z,70.86
2019-03-30T19:49:41.906Z,71.12
2019-03-30T19:52:13.301Z,71.29
2019-03-30T19:54:44.851Z,71.82
2019-03-30T19:57:16.296Z,72.33
2019-03-30T19:59:47.731Z,72.41
2019-03-30T20:02:19.195Z,72.59
2019-03-30T20:04:50.621Z,72.64
2019-03-30T20:07:22.130Z,72.89
2019-03-30T20:09:53.531Z,72.98
2019-03-30T20:12:25.229Z,73.10
2019-03-30T20:14:56.803Z,73.49
2019-03-30T20:17:28.314Z,73.72
2019-03-30T20:19:59.726Z,73.52
2019-03-30T20:22:31.152Z,73.71
2019-03-30T20:25:02.490Z,74.31
2019-03-30T20:27:33.811Z,74.28
2019-03-30T20:30:06.227Z,74.91
2019-03-30T20:32:37.762Z,75.59
2019-03-30T20:35:11.251Z,76.29
2019-03-30T20:37:43.015Z,76.59
2019-03-30T20:40:14.591Z,77.35
2019-03-30T20:42:46.010Z,77.66
2019-03-30T20:45:18.781Z,78.14
2019-03-30T20:47:50.230Z,78.57
2019-03-30T20:50:21.642Z,79.01
2019-03-30T20:52:53.002Z,79.86
2019-03-30T20:55:24.343Z,80.00
2019-03-30T20:57:55.757Z,80.46
2019-03-30T21:00:27.114Z,80.60
2019-03-30T21:02:58.633Z,81.00
2019-03-30T21:05:30.039Z,80.97
2019-03-30T21:08:01.544Z,80.97
2019-03-30T21:10:32.958Z,81.40
2019-03-30T21:13:04.523Z,81.67
2019-03-30T21:15:36.075Z,82.00
2019-03-30T21:18:07.379Z,82.08
2019-03-30T21:20:38.620Z,81.94
2019-03-30T21:23:10.010Z,82.33
2019-03-30T21:25:41.341Z,82.87
2019-03-30T21:28:12.685Z,83.22
2019-03-30T21:30:44.030Z,83.72
2019-03-30T21:33:15.276Z,83.54
2019-03-30T21:35:46.595Z,83.81
2019-03-30T21:38:17.966Z,84.14
2019-03-30T21:40:49.228Z,84.47
2019-03-30T21:43:20.571Z,84.64
2019-03-30T21:45:51.884Z,84.72
2019-03-30T21:48:23.114Z,85.05
2019-03-30T21:50:54.342Z,84.75
2019-03-30T21:53:25.636Z,84.83
2019-03-30T21:55:57.007Z,84.93
2019-03-30T21:58:29.192Z,85.20
2019-03-30T22:01:00.556Z,85.16
2019-03-30T22:03:31.811Z,85.28
2019-03-30T22:06:03.173Z,85.82
2019-03-30T22:08:34.582Z,85.82
2019-03-30T22:11:06.264Z,85.87
2019-03-30T22:13:38.667Z,85.68
2019-03-30T22:16:10.031Z,86.21
2019-03-30T22:18:41.381Z,86.50
2019-03-30T22:21:12.626Z,86.70
2019-03-30T22:23:44.174Z,86.67
2019-03-30T22:26:15.599Z,87.07
2019-03-30T22:28:47.059Z,87.36
2019-03-30T22:31:18.767Z,87.55
2019-03-30T22:33:50.217Z,87.37
2019-03-30T22:36:21.753Z,87.70
2019-03-30T22:38:53.257Z,88.06
2019-03-30T22:41:24.783Z,88.46
2019-03-30T22:43:56.243Z,88.73
2019-03-30T22:46:27.791Z,88.87
2019-03-30T22:48:59.235Z,89.03
2019-03-30T22:51:30.643Z,88.57
2019-03-30T22:54:02.126Z,88.90
2019-03-30T22:56:33.535Z,89.18
2019-03-30T22:59:05.041Z,89.16
2019-03-30T23:01:36.801Z,88.53
2019-03-30T23:04:08.406Z,88.81
2019-03-30T23:06:39.852Z,88.61
2019-03-30T23:09:11.701Z,88.53
2019-03-30T23:11:43.488Z,88.49
2019-03-30T23:14:14.956Z,88.59
2019-03-30T23:16:46.466Z,88.40
2019-03-30T23:19:17.965Z,88.56
2019-03-30T23:21:49.436Z,88.23
2019-03-30T23:24:20.928Z,87.44
2019-03-30T23:26:52.472Z,87.43
2019-03-30T23:29:23.935Z,87.08
2019-03-30T23:31:55.472Z,87.07
2019-03-30T23:34:27.000Z,86.58
2019-03-30T23:36:58.539Z,86.56
2019-03-30T23:39:29.997Z,85.97
2019-03-30T23:42:01.560Z,86.20
2019-03-30T23:44:33.085Z,86.63
2019-03-30T23:47:04.635Z,87.00
2019-03-30T23:49:37.113Z,86.80
2019-03-30T23:52:08.674Z,86.96
2019-03-30T23:54:40.178Z,87.22
2019-03-30T23:57:11.665Z,87.09
2019-03-30T23:59:43.150Z,87.35
